sensor_id;sensor_type;location;lat;lon;timestamp;pressure;altitude;pressure_sealevel;temperature;humidity
34931;BME280;21134;49.646;8.560;2023-07-13T00:00:47;100376.44;;;19.87;62.73
34931;BME280;21134;49.646;8.560;2023-07-13T00:03:15;100379.28;;;19.81;62.96
34931;BME280;21134;49.646;8.560;2023-07-13T00:05:42;100382.38;;;19.68;63.24
34931;BME280;21134;49.646;8.560;2023-07-13T00:08:09;100392.16;;;19.62;63.28
34931;BME280;21134;49.646;8.560;2023-07-13T00:10:39;100396.72;;;19.55;63.60
34931;BME280;21134;49.646;8.560;2023-07-13T00:13:06;100394.47;;;19.47;63.63
34931;BME280;21134;49.646;8.560;2023-07-13T00:15:33;100390.34;;;19.42;64.12
34931;BME280;21134;49.646;8.560;2023-07-13T00:18:00;100387.16;;;19.35;64.97
34931;BME280;21134;49.646;8.560;2023-07-13T00:20:28;100388.28;;;19.28;65.52
34931;BME280;21134;49.646;8.560;2023-07-13T00:22:55;100399.19;;;19.14;65.86
34931;BME280;21134;49.646;8.560;2023-07-13T00:25:22;100397.63;;;19.10;65.18
34931;BME280;21134;49.646;8.560;2023-07-13T00:27:50;100400.31;;;19.07;64.98
34931;BME280;21134;49.646;8.560;2023-07-13T00:30:17;100403.72;;;19.09;65.31
34931;BME280;21134;49.646;8.560;2023-07-13T00:32:44;100399.44;;;19.08;65.04
34931;BME280;21134;49.646;8.560;2023-07-13T00:35:13;100397.47;;;19.15;64.67
34931;BME280;21134;49.646;8.560;2023-07-13T00:37:41;100395.94;;;19.09;65.10
34931;BME280;21134;49.646;8.560;2023-07-13T00:40:10;100399.44;;;19.08;65.42
34931;BME280;21134;49.646;8.560;2023-07-13T00:42:37;100391.69;;;19.07;65.26
34931;BME280;21134;49.646;8.560;2023-07-13T00:45:07;100396.28;;;19.00;65.24
34931;BME280;21134;49.646;8.560;2023-07-13T00:47:34;100402.41;;;18.97;65.24
34931;BME280;21134;49.646;8.560;2023-07-13T00:50:01;100398.03;;;18.99;65.10
34931;BME280;21134;49.646;8.560;2023-07-13T00:52:28;100392.13;;;18.96;65.53
34931;BME280;21134;49.646;8.560;2023-07-13T00:54:57;100388.16;;;18.86;65.98
34931;BME280;21134;49.646;8.560;2023-07-13T00:57:24;100390.31;;;18.74;66.32
34931;BME280;21134;49.646;8.560;2023-07-13T00:59:54;100404.28;;;18.69;66.41
34931;BME280;21134;49.646;8.560;2023-07-13T01:02:22;100397.69;;;18.60;67.24
34931;BME280;21134;49.646;8.560;2023-07-13T01:04:48;100397.66;;;18.62;67.61
34931;BME280;21134;49.646;8.560;2023-07-13T01:07:15;100396.09;;;18.56;68.21
34931;BME280;21134;49.646;8.560;2023-07-13T01:09:42;100400.66;;;18.49;68.13
34931;BME280;21134;49.646;8.560;2023-07-13T01:12:11;100396.72;;;18.39;68.29
34931;BME280;21134;49.646;8.560;2023-07-13T01:14:39;100406.28;;;18.37;67.66
34931;BME280;21134;49.646;8.560;2023-07-13T01:17:08;100398.88;;;18.26;67.80
34931;BME280;21134;49.646;8.560;2023-07-13T01:19:37;100400.72;;;18.23;68.08
34931;BME280;21134;49.646;8.560;2023-07-13T01:22:07;100394.06;;;18.16;68.83
34931;BME280;21134;49.646;8.560;2023-07-13T01:24:35;100402.94;;;18.08;68.10
34931;BME280;21134;49.646;8.560;2023-07-13T01:27:02;100393.31;;;18.12;67.63
34931;BME280;21134;49.646;8.560;2023-07-13T01:29:29;100390.88;;;18.07;67.75
34931;BME280;21134;49.646;8.560;2023-07-13T01:31:56;100389.31;;;18.03;67.97
34931;BME280;21134;49.646;8.560;2023-07-13T01:34:23;100400.59;;;18.01;67.89
34931;BME280;21134;49.646;8.560;2023-07-13T01:36:49;100398.22;;;17.95;68.39
34931;BME280;21134;49.646;8.560;2023-07-13T01:39:20;100401.16;;;17.84;68.95
34931;BME280;21134;49.646;8.560;2023-07-13T01:41:47;100399.72;;;17.74;70.39
34931;BME280;21134;49.646;8.560;2023-07-13T01:44:13;100402.66;;;17.63;70.96
34931;BME280;21134;49.646;8.560;2023-07-13T01:46:40;100403.66;;;17.59;71.56
34931;BME280;21134;49.646;8.560;2023-07-13T01:49:06;100409.94;;;17.50;72.29
34931;BME280;21134;49.646;8.560;2023-07-13T01:51:33;100413.66;;;17.41;72.09
34931;BME280;21134;49.646;8.560;2023-07-13T01:54:00;100414.72;;;17.36;72.37
34931;BME280;21134;49.646;8.560;2023-07-13T01:56:27;100408.84;;;17.29;72.70
34931;BME280;21134;49.646;8.560;2023-07-13T01:58:54;100419.25;;;17.28;73.39
34931;BME280;21134;49.646;8.560;2023-07-13T02:01:20;100412.56;;;17.20;73.49
34931;BME280;21134;49.646;8.560;2023-07-13T02:03:47;100416.75;;;17.25;72.83
34931;BME280;21134;49.646;8.560;2023-07-13T02:06:14;100426.63;;;17.12;73.48
34931;BME280;21134;49.646;8.560;2023-07-13T02:08:40;100436.38;;;17.02;73.46
34931;BME280;21134;49.646;8.560;2023-07-13T02:11:07;100432.13;;;17.00;73.75
34931;BME280;21134;49.646;8.560;2023-07-13T02:13:35;100431.38;;;16.96;74.06
34931;BME280;21134;49.646;8.560;2023-07-13T02:16:02;100423.94;;;16.85;74.04
34931;BME280;21134;49.646;8.560;2023-07-13T02:18:29;100432.63;;;16.83;73.97
34931;BME280;21134;49.646;8.560;2023-07-13T02:20:55;100426.72;;;16.78;74.41
34931;BME280;21134;49.646;8.560;2023-07-13T02:23:22;100434.44;;;16.79;74.26
34931;BME280;21134;49.646;8.560;2023-07-13T02:25:49;100444.06;;;16.72;74.78
34931;BME280;21134;49.646;8.560;2023-07-13T02:28:15;100444.19;;;16.68;74.63
34931;BME280;21134;49.646;8.560;2023-07-13T02:30:43;100442.44;;;16.68;75.14
34931;BME280;21134;49.646;8.560;2023-07-13T02:33:10;100446.13;;;16.60;75.28
34931;BME280;21134;49.646;8.560;2023-07-13T02:35:36;100444.50;;;16.56;74.80
34931;BME280;21134;49.646;8.560;2023-07-13T02:38:03;100448.75;;;16.58;73.98
34931;BME280;21134;49.646;8.560;2023-07-13T02:40:29;100447.16;;;16.52;74.18
34931;BME280;21134;49.646;8.560;2023-07-13T02:42:58;100450.78;;;16.47;74.87
34931;BME280;21134;49.646;8.560;2023-07-13T02:45:25;100454.28;;;16.43;75.70
34931;BME280;21134;49.646;8.560;2023-07-13T02:47:53;100440.53;;;16.42;75.66
34931;BME280;21134;49.646;8.560;2023-07-13T02:50:20;100445.03;;;16.36;76.10
34931;BME280;21134;49.646;8.560;2023-07-13T02:52:46;100440.84;;;16.32;77.21
34931;BME280;21134;49.646;8.560;2023-07-13T02:55:13;100441.75;;;16.29;76.87
34931;BME280;21134;49.646;8.560;2023-07-13T02:57:39;100438.41;;;16.25;76.81
34931;BME280;21134;49.646;8.560;2023-07-13T03:00:07;100442.72;;;16.25;77.19
34931;BME280;21134;49.646;8.560;2023-07-13T03:02:34;100446.88;;;16.31;77.12
34931;BME280;21134;49.646;8.560;2023-07-13T03:05:03;100437.50;;;16.26;76.57
34931;BME280;21134;49.646;8.560;2023-07-13T03:07:30;100445.31;;;16.23;76.80
34931;BME280;21134;49.646;8.560;2023-07-13T03:09:58;100447.13;;;16.20;77.65
34931;BME280;21134;49.646;8.560;2023-07-13T03:12:25;100445.63;;;16.11;78.12
34931;BME280;21134;49.646;8.560;2023-07-13T03:14:51;100443.22;;;16.05;77.75
34931;BME280;21134;49.646;8.560;2023-07-13T03:17:18;100447.66;;;15.98;77.84
34931;BME280;21134;49.646;8.560;2023-07-13T03:19:44;100449.53;;;15.92;78.13
34931;BME280;21134;49.646;8.560;2023-07-13T03:22:16;100450.34;;;15.94;77.57
34931;BME280;21134;49.646;8.560;2023-07-13T03:24:42;100455.56;;;15.92;78.33
34931;BME280;21134;49.646;8.560;2023-07-13T03:27:09;100460.88;;;15.86;77.97
34931;BME280;21134;49.646;8.560;2023-07-13T03:29:35;100460.06;;;15.84;78.68
34931;BME280;21134;49.646;8.560;2023-07-13T03:32:02;100457.66;;;15.76;79.27
34931;BME280;21134;49.646;8.560;2023-07-13T03:34:29;100461.03;;;15.78;79.38
34931;BME280;21134;49.646;8.560;2023-07-13T03:36:56;100472.94;;;15.84;78.91
34931;BME280;21134;49.646;8.560;2023-07-13T03:39:24;100471.34;;;15.78;79.64
34931;BME280;21134;49.646;8.560;2023-07-13T03:41:52;100468.75;;;15.80;78.79
34931;BME280;21134;49.646;8.560;2023-07-13T03:44:18;100467.78;;;15.84;79.55
34931;BME280;21134;49.646;8.560;2023-07-13T03:46:45;100467.78;;;15.84;78.72
34931;BME280;21134;49.646;8.560;2023-07-13T03:49:12;100459.28;;;15.80;79.05
34931;BME280;21134;49.646;8.560;2023-07-13T03:51:38;100466.09;;;15.83;79.10
34931;BME280;21134;49.646;8.560;2023-07-13T03:54:05;100469.66;;;15.77;80.05
34931;BME280;21134;49.646;8.560;2023-07-13T03:56:33;100468.97;;;15.69;80.30
34931;BME280;21134;49.646;8.560;2023-07-13T03:58:59;100472.31;;;15.74;80.21
34931;BME280;21134;49.646;8.560;2023-07-13T04:01:27;100470.72;;;15.69;80.07
34931;BME280;21134;49.646;8.560;2023-07-13T04:03:54;100478.44;;;15.69;79.90
34931;BME280;21134;49.646;8.560;2023-07-13T04:06:23;100473.22;;;15.73;80.72
34931;BME280;21134;49.646;8.560;2023-07-13T04:08:52;100469.84;;;15.70;81.04
34931;BME280;21134;49.646;8.560;2023-07-13T04:11:21;100479.22;;;15.74;80.59
34931;BME280;21134;49.646;8.560;2023-07-13T04:13:49;100479.16;;;15.75;80.23
34931;BME280;21134;49.646;8.560;2023-07-13T04:16:17;100476.50;;;15.80;80.70
34931;BME280;21134;49.646;8.560;2023-07-13T04:18:44;100475.53;;;15.84;80.65
34931;BME280;21134;49.646;8.560;2023-07-13T04:21:12;100478.88;;;15.89;80.56
34931;BME280;21134;49.646;8.560;2023-07-13T04:23:38;100471.19;;;15.86;80.74
34931;BME280;21134;49.646;8.560;2023-07-13T04:26:05;100477.13;;;15.90;80.33
34931;BME280;21134;49.646;8.560;2023-07-13T04:28:33;100481.44;;;15.89;80.32
34931;BME280;21134;49.646;8.560;2023-07-13T04:31:01;100484.75;;;15.94;80.67
34931;BME280;21134;49.646;8.560;2023-07-13T04:33:28;100495.63;;;16.07;81.00
34931;BME280;21134;49.646;8.560;2023-07-13T04:35:55;100494.66;;;16.13;81.25
34931;BME280;21134;49.646;8.560;2023-07-13T04:38:23;100498.00;;;16.16;80.39
34931;BME280;21134;49.646;8.560;2023-07-13T04:40:51;100506.34;;;16.27;79.45
34931;BME280;21134;49.646;8.560;2023-07-13T04:43:17;100507.06;;;16.34;79.35
34931;BME280;21134;49.646;8.560;2023-07-13T04:45:44;100505.94;;;16.43;79.19
34931;BME280;21134;49.646;8.560;2023-07-13T04:48:11;100507.63;;;16.45;79.67
34931;BME280;21134;49.646;8.560;2023-07-13T04:50:38;100508.44;;;16.47;79.72
34931;BME280;21134;49.646;8.560;2023-07-13T04:53:05;100512.59;;;16.53;79.37
34931;BME280;21134;49.646;8.560;2023-07-13T04:55:31;100507.44;;;16.53;79.65
34931;BME280;21134;49.646;8.560;2023-07-13T04:57:58;100502.22;;;16.55;79.44
34931;BME280;21134;49.646;8.560;2023-07-13T05:00:25;100502.00;;;16.62;80.36
34931;BME280;21134;49.646;8.560;2023-07-13T05:02:53;100500.94;;;16.71;79.40
34931;BME280;21134;49.646;8.560;2023-07-13T05:05:21;100503.28;;;16.82;79.40
34931;BME280;21134;49.646;8.560;2023-07-13T05:07:47;100512.50;;;16.90;79.51
34931;BME280;21134;49.646;8.560;2023-07-13T05:10:14;100512.28;;;17.00;78.88
34931;BME280;21134;49.646;8.560;2023-07-13T05:12:41;100504.25;;;17.09;78.62
34931;BME280;21134;49.646;8.560;2023-07-13T05:15:09;100508.34;;;17.17;78.04
34931;BME280;21134;49.646;8.560;2023-07-13T05:17:35;100503.84;;;17.24;77.51
34931;BME280;21134;49.646;8.560;2023-07-13T05:20:04;100510.59;;;17.30;77.62
34931;BME280;21134;49.646;8.560;2023-07-13T05:22:32;100514.72;;;17.35;77.21
34931;BME280;21134;49.646;8.560;2023-07-13T05:25:00;100513.69;;;17.41;76.45
34931;BME280;21134;49.646;8.560;2023-07-13T05:27:26;100520.38;;;17.48;76.06
34931;BME280;21134;49.646;8.560;2023-07-13T05:29:53;100523.53;;;17.58;76.02
34931;BME280;21134;49.646;8.560;2023-07-13T05:32:20;100524.13;;;17.67;75.62
34931;BME280;21134;49.646;8.560;2023-07-13T05:34:46;100525.59;;;17.76;75.03
34931;BME280;21134;49.646;8.560;2023-07-13T05:37:13;100526.34;;;17.81;73.92
34931;BME280;21134;49.646;8.560;2023-07-13T05:39:41;100528.50;;;17.95;73.16
34931;BME280;21134;49.646;8.560;2023-07-13T05:42:07;100539.38;;;18.06;73.71
34931;BME280;21134;49.646;8.560;2023-07-13T05:44:34;100531.38;;;18.14;72.74
34931;BME280;21134;49.646;8.560;2023-07-13T05:47:00;100530.16;;;18.24;72.14
34931;BME280;21134;49.646;8.560;2023-07-13T05:49:27;100537.75;;;18.30;71.96
34931;BME280;21134;49.646;8.560;2023-07-13T05:51:55;100537.63;;;18.35;67.26
34931;BME280;21134;49.646;8.560;2023-07-13T05:54:22;100533.31;;;18.34;66.03
34931;BME280;21134;49.646;8.560;2023-07-13T05:56:50;100538.41;;;18.37;66.83
34931;BME280;21134;49.646;8.560;2023-07-13T05:59:17;100539.22;;;18.38;67.43
34931;BME280;21134;49.646;8.560;2023-07-13T06:01:43;100540.75;;;18.45;66.06
34931;BME280;21134;49.646;8.560;2023-07-13T06:04:10;100544.94;;;18.49;65.09
34931;BME280;21134;49.646;8.560;2023-07-13T06:06:36;100545.63;;;18.54;64.29
34931;BME280;21134;49.646;8.560;2023-07-13T06:09:03;100549.44;;;18.69;64.01
34931;BME280;21134;49.646;8.560;2023-07-13T06:11:30;100546.66;;;18.76;64.52
34931;BME280;21134;49.646;8.560;2023-07-13T06:13:57;100541.25;;;18.83;64.18
34931;BME280;21134;49.646;8.560;2023-07-13T06:16:24;100550.41;;;18.93;64.38
34931;BME280;21134;49.646;8.560;2023-07-13T06:18:50;100557.88;;;19.02;64.42
34931;BME280;21134;49.646;8.560;2023-07-13T06:21:19;100559.59;;;19.01;62.38
34931;BME280;21134;49.646;8.560;2023-07-13T06:23:48;100563.78;;;19.05;61.27
34931;BME280;21134;49.646;8.560;2023-07-13T06:26:15;100566.41;;;19.04;62.27
34931;BME280;21134;49.646;8.560;2023-07-13T06:28:42;100576.53;;;19.12;62.07
34931;BME280;21134;49.646;8.560;2023-07-13T06:31:12;100571.19;;;19.16;61.42
34931;BME280;21134;49.646;8.560;2023-07-13T06:33:39;100569.19;;;19.24;60.69
34931;BME280;21134;49.646;8.560;2023-07-13T06:36:06;100574.78;;;19.37;60.15
34931;BME280;21134;49.646;8.560;2023-07-13T06:38:34;100579.56;;;19.48;60.10
34931;BME280;21134;49.646;8.560;2023-07-13T06:41:01;100582.56;;;19.61;59.95
34931;BME280;21134;49.646;8.560;2023-07-13T06:43:28;100578.25;;;19.85;58.01
34931;BME280;21134;49.646;8.560;2023-07-13T06:45:56;100576.97;;;19.95;58.18
34931;BME280;21134;49.646;8.560;2023-07-13T06:48:25;100580.59;;;20.13;58.54
34931;BME280;21134;49.646;8.560;2023-07-13T06:50:52;100589.88;;;20.20;59.36
34931;BME280;21134;49.646;8.560;2023-07-13T06:53:19;100594.75;;;20.28;59.10
34931;BME280;21134;49.646;8.560;2023-07-13T06:55:46;100601.22;;;20.39;58.05
34931;BME280;21134;49.646;8.560;2023-07-13T06:58:14;100595.16;;;20.61;57.30
34931;BME280;21134;49.646;8.560;2023-07-13T07:00:40;100591.47;;;20.66;55.79
34931;BME280;21134;49.646;8.560;2023-07-13T07:03:07;100596.03;;;20.82;56.22
34931;BME280;21134;49.646;8.560;2023-07-13T07:05:35;100593.38;;;21.04;53.17
34931;BME280;21134;49.646;8.560;2023-07-13T07:08:02;100597.75;;;21.03;53.70
34931;BME280;21134;49.646;8.560;2023-07-13T07:10:30;100594.97;;;21.27;52.91
34931;BME280;21134;49.646;8.560;2023-07-13T07:12:57;100595.44;;;21.36;53.14
34931;BME280;21134;49.646;8.560;2023-07-13T07:15:23;100603.38;;;21.54;52.38
34931;BME280;21134;49.646;8.560;2023-07-13T07:17:50;100613.72;;;21.74;53.19
34931;BME280;21134;49.646;8.560;2023-07-13T07:20:16;100603.50;;;21.89;51.68
34931;BME280;21134;49.646;8.560;2023-07-13T07:22:44;100600.63;;;21.95;52.50
34931;BME280;21134;49.646;8.560;2023-07-13T07:25:11;100603.63;;;22.04;51.44
34931;BME280;21134;49.646;8.560;2023-07-13T07:27:38;100606.09;;;22.26;51.00
34931;BME280;21134;49.646;8.560;2023-07-13T07:30:06;100602.81;;;22.77;50.11
34931;BME280;21134;49.646;8.560;2023-07-13T07:32:32;100595.88;;;23.28;49.35
34931;BME280;21134;49.646;8.560;2023-07-13T07:34:59;100598.19;;;23.50;48.25
34931;BME280;21134;49.646;8.560;2023-07-13T07:37:25;100598.13;;;23.18;48.15
34931;BME280;21134;49.646;8.560;2023-07-13T07:39:53;100600.31;;;23.26;48.43
34931;BME280;21134;49.646;8.560;2023-07-13T07:42:20;100595.56;;;23.34;47.90
34931;BME280;21134;49.646;8.560;2023-07-13T07:44:46;100597.66;;;23.76;48.33
34931;BME280;21134;49.646;8.560;2023-07-13T07:47:13;100592.59;;;24.21;45.99
34931;BME280;21134;49.646;8.560;2023-07-13T07:49:40;100601.41;;;24.04;46.33
34931;BME280;21134;49.646;8.560;2023-07-13T07:52:07;100606.63;;;23.88;47.50
34931;BME280;21134;49.646;8.560;2023-07-13T07:54:34;100603.63;;;23.62;47.19
34931;BME280;21134;49.646;8.560;2023-07-13T07:57:02;100605.94;;;23.51;47.76
34931;BME280;21134;49.646;8.560;2023-07-13T07:59:28;100610.81;;;23.41;48.25
34931;BME280;21134;49.646;8.560;2023-07-13T08:01:55;100613.00;;;23.33;49.09
34931;BME280;21134;49.646;8.560;2023-07-13T08:04:21;100616.16;;;23.23;49.47
34931;BME280;21134;49.646;8.560;2023-07-13T08:06:48;100610.59;;;23.29;49.35
34931;BME280;21134;49.646;8.560;2023-07-13T08:09:14;100616.75;;;22.94;47.65
34931;BME280;21134;49.646;8.560;2023-07-13T08:11:41;100605.00;;;22.84;48.47
34931;BME280;21134;49.646;8.560;2023-07-13T08:14:09;100602.41;;;22.84;48.68
34931;BME280;21134;49.646;8.560;2023-07-13T08:16:35;100610.56;;;23.13;49.17
34931;BME280;21134;49.646;8.560;2023-07-13T08:19:02;100606.78;;;23.36;48.03
34931;BME280;21134;49.646;8.560;2023-07-13T08:21:29;100601.13;;;23.77;47.59
34931;BME280;21134;49.646;8.560;2023-07-13T08:23:56;100603.41;;;23.99;46.66
34931;BME280;21134;49.646;8.560;2023-07-13T08:26:22;100604.84;;;24.04;46.09
34931;BME280;21134;49.646;8.560;2023-07-13T08:28:49;100607.28;;;23.92;45.40
34931;BME280;21134;49.646;8.560;2023-07-13T08:31:17;100604.19;;;23.85;46.38
34931;BME280;21134;49.646;8.560;2023-07-13T08:33:43;100614.06;;;23.62;46.29
34931;BME280;21134;49.646;8.560;2023-07-13T08:36:10;100600.97;;;23.47;47.13
34931;BME280;21134;49.646;8.560;2023-07-13T08:38:37;100603.59;;;23.47;46.60
34931;BME280;21134;49.646;8.560;2023-07-13T08:41:13;100593.41;;;23.58;46.18
34931;BME280;21134;49.646;8.560;2023-07-13T08:43:41;100595.00;;;23.78;46.58
34931;BME280;21134;49.646;8.560;2023-07-13T08:46:13;100595.00;;;24.09;46.00
34931;BME280;21134;49.646;8.560;2023-07-13T08:48:44;100598.00;;;24.02;45.73
34931;BME280;21134;49.646;8.560;2023-07-13T08:51:25;100593.03;;;24.29;46.20
34931;BME280;21134;49.646;8.560;2023-07-13T08:53:57;100603.31;;;24.32;46.35
34931;BME280;21134;49.646;8.560;2023-07-13T08:56:28;100600.59;;;24.49;45.46
34931;BME280;21134;49.646;8.560;2023-07-13T08:58:57;100595.47;;;24.48;44.95
34931;BME280;21134;49.646;8.560;2023-07-13T09:01:29;100594.88;;;24.43;45.87
34931;BME280;21134;49.646;8.560;2023-07-13T09:04:03;100602.38;;;24.79;46.09
34931;BME280;21134;49.646;8.560;2023-07-13T09:06:38;100602.38;;;24.79;44.36
34931;BME280;21134;49.646;8.560;2023-07-13T09:09:10;100597.19;;;25.08;44.31
34931;BME280;21134;49.646;8.560;2023-07-13T09:11:47;100592.84;;;25.22;42.68
34931;BME280;21134;49.646;8.560;2023-07-13T09:14:30;100589.84;;;25.14;42.13
34931;BME280;21134;49.646;8.560;2023-07-13T09:19:30;100580.63;;;25.93;43.02
34931;BME280;21134;49.646;8.560;2023-07-13T09:22:00;100582.25;;;26.35;42.01
34931;BME280;21134;49.646;8.560;2023-07-13T09:24:34;100580.66;;;26.60;41.20
34931;BME280;21134;49.646;8.560;2023-07-13T09:27:09;100580.19;;;26.93;39.24
34931;BME280;21134;49.646;8.560;2023-07-13T09:29:41;100578.28;;;26.82;39.70
34931;BME280;21134;49.646;8.560;2023-07-13T09:32:10;100577.09;;;26.74;38.52
34931;BME280;21134;49.646;8.560;2023-07-13T09:34:41;100566.09;;;26.81;39.34
34931;BME280;21134;49.646;8.560;2023-07-13T09:37:07;100578.41;;;26.94;37.74
34931;BME280;21134;49.646;8.560;2023-07-13T09:39:38;100574.28;;;26.77;38.61
34931;BME280;21134;49.646;8.560;2023-07-13T09:42:12;100578.34;;;26.55;38.67
34931;BME280;21134;49.646;8.560;2023-07-13T09:44:52;100584.16;;;26.33;38.67
34931;BME280;21134;49.646;8.560;2023-07-13T09:47:21;100574.28;;;26.10;39.73
34931;BME280;21134;49.646;8.560;2023-07-13T09:49:56;100586.13;;;26.30;39.20
34931;BME280;21134;49.646;8.560;2023-07-13T09:52:23;100582.22;;;26.50;38.31
34931;BME280;21134;49.646;8.560;2023-07-13T09:54:51;100569.41;;;26.58;38.07
34931;BME280;21134;49.646;8.560;2023-07-13T09:57:25;100571.78;;;26.75;38.49
34931;BME280;21134;49.646;8.560;2023-07-13T09:59:55;100574.38;;;26.62;37.80
34931;BME280;21134;49.646;8.560;2023-07-13T10:02:26;100591.63;;;26.39;38.27
34931;BME280;21134;49.646;8.560;2023-07-13T10:04:59;100582.16;;;26.37;37.45
34931;BME280;21134;49.646;8.560;2023-07-13T10:07:26;100583.22;;;26.47;38.09
34931;BME280;21134;49.646;8.560;2023-07-13T10:09:53;100590.19;;;26.48;36.77
34931;BME280;21134;49.646;8.560;2023-07-13T10:12:20;100584.88;;;26.35;37.13
34931;BME280;21134;49.646;8.560;2023-07-13T10:14:50;100572.34;;;26.13;37.62
34931;BME280;21134;49.646;8.560;2023-07-13T10:17:19;100578.41;;;26.14;37.96
34931;BME280;21134;49.646;8.560;2023-07-13T10:19:48;100592.66;;;26.10;38.26
34931;BME280;21134;49.646;8.560;2023-07-13T10:22:22;100581.53;;;26.33;37.64
34931;BME280;21134;49.646;8.560;2023-07-13T10:24:50;100574.59;;;26.59;37.57
34931;BME280;21134;49.646;8.560;2023-07-13T10:27:18;100567.56;;;26.85;37.72
34931;BME280;21134;49.646;8.560;2023-07-13T10:29:47;100565.78;;;27.11;37.28
34931;BME280;21134;49.646;8.560;2023-07-13T10:32:14;100571.19;;;27.23;37.37
34931;BME280;21134;49.646;8.560;2023-07-13T10:34:43;100565.69;;;26.48;37.55
34931;BME280;21134;49.646;8.560;2023-07-13T10:37:18;100576.56;;;26.56;37.92
34931;BME280;21134;49.646;8.560;2023-07-13T10:39:47;100576.47;;;26.70;37.89
34931;BME280;21134;49.646;8.560;2023-07-13T10:42:28;100573.00;;;26.70;38.27
34931;BME280;21134;49.646;8.560;2023-07-13T10:44:56;100579.66;;;27.01;36.62
34931;BME280;21134;49.646;8.560;2023-07-13T10:47:24;100571.34;;;26.81;36.96
34931;BME280;21134;49.646;8.560;2023-07-13T10:49:54;100581.28;;;26.51;37.41
34931;BME280;21134;49.646;8.560;2023-07-13T10:52:41;100567.03;;;26.28;37.68
34931;BME280;21134;49.646;8.560;2023-07-13T10:55:40;100568.34;;;25.93;38.01
34931;BME280;21134;49.646;8.560;2023-07-13T10:58:15;100565.97;;;26.30;37.68
34931;BME280;21134;49.646;8.560;2023-07-13T11:00:49;100573.84;;;26.30;37.14
34931;BME280;21134;49.646;8.560;2023-07-13T11:03:19;100570.19;;;26.73;37.31
34931;BME280;21134;49.646;8.560;2023-07-13T11:05:48;100581.56;;;27.37;37.34
34931;BME280;21134;49.646;8.560;2023-07-13T11:08:21;100569.25;;;27.38;35.57
34931;BME280;21134;49.646;8.560;2023-07-13T11:10:58;100579.75;;;27.50;35.68
34931;BME280;21134;49.646;8.560;2023-07-13T11:13:58;100569.25;;;27.25;35.26
34931;BME280;21134;49.646;8.560;2023-07-13T11:16:43;100570.44;;;27.21;36.19
34931;BME280;21134;49.646;8.560;2023-07-13T11:19:39;100569.78;;;27.30;37.03
34931;BME280;21134;49.646;8.560;2023-07-13T11:22:13;100559.63;;;27.62;35.27
34931;BME280;21134;49.646;8.560;2023-07-13T11:24:59;100566.81;;;27.97;35.26
34931;BME280;21134;49.646;8.560;2023-07-13T11:27:35;100574.28;;;27.41;34.48
34931;BME280;21134;49.646;8.560;2023-07-13T11:30:22;100563.28;;;27.23;35.67
34931;BME280;21134;49.646;8.560;2023-07-13T11:33:03;100561.28;;;27.39;36.03
34931;BME280;21134;49.646;8.560;2023-07-13T11:35:33;100555.19;;;27.39;36.08
34931;BME280;21134;49.646;8.560;2023-07-13T11:38:01;100550.06;;;27.61;36.35
34931;BME280;21134;49.646;8.560;2023-07-13T11:40:30;100557.88;;;27.99;35.26
34931;BME280;21134;49.646;8.560;2023-07-13T11:43:00;100552.84;;;27.47;34.95
34931;BME280;21134;49.646;8.560;2023-07-13T11:45:27;100548.28;;;27.62;35.86
34931;BME280;21134;49.646;8.560;2023-07-13T11:47:54;100547.13;;;28.02;34.13
34931;BME280;21134;49.646;8.560;2023-07-13T11:50:24;100566.81;;;28.21;34.02
34931;BME280;21134;49.646;8.560;2023-07-13T11:52:52;100563.84;;;28.25;33.61
34931;BME280;21134;49.646;8.560;2023-07-13T11:55:20;100560.44;;;28.12;34.05
34931;BME280;21134;49.646;8.560;2023-07-13T11:57:53;100563.34;;;27.96;33.96
34931;BME280;21134;49.646;8.560;2023-07-13T12:00:25;100570.81;;;27.53;34.28
34931;BME280;21134;49.646;8.560;2023-07-13T12:02:54;100561.69;;;27.07;35.09
34931;BME280;21134;49.646;8.560;2023-07-13T12:05:22;100551.28;;;26.67;35.06
34931;BME280;21134;49.646;8.560;2023-07-13T12:07:49;100556.31;;;27.09;35.32
34931;BME280;21134;49.646;8.560;2023-07-13T12:10:19;100553.88;;;27.57;33.07
34931;BME280;21134;49.646;8.560;2023-07-13T12:12:47;100544.16;;;27.70;32.52
34931;BME280;21134;49.646;8.560;2023-07-13T12:15:16;100554.47;;;27.73;33.93
34931;BME280;21134;49.646;8.560;2023-07-13T12:17:42;100557.50;;;27.18;34.98
34931;BME280;21134;49.646;8.560;2023-07-13T12:20:20;100559.19;;;27.06;34.49
34931;BME280;21134;49.646;8.560;2023-07-13T12:22:47;100560.06;;;26.54;35.07
34931;BME280;21134;49.646;8.560;2023-07-13T12:25:15;100563.06;;;26.48;35.32
34931;BME280;21134;49.646;8.560;2023-07-13T12:27:46;100576.00;;;26.90;36.20
34931;BME280;21134;49.646;8.560;2023-07-13T12:30:25;100569.13;;;26.62;36.71
34931;BME280;21134;49.646;8.560;2023-07-13T12:33:00;100564.31;;;26.82;36.74
34931;BME280;21134;49.646;8.560;2023-07-13T12:35:28;100573.88;;;26.96;36.00
34931;BME280;21134;49.646;8.560;2023-07-13T12:37:58;100568.81;;;26.67;35.99
34931;BME280;21134;49.646;8.560;2023-07-13T12:40:29;100579.72;;;26.74;35.63
34931;BME280;21134;49.646;8.560;2023-07-13T12:42:58;100571.19;;;27.23;35.63
34931;BME280;21134;49.646;8.560;2023-07-13T12:45:27;100583.69;;;27.81;34.27
34931;BME280;21134;49.646;8.560;2023-07-13T12:47:56;100564.69;;;28.02;33.31
34931;BME280;21134;49.646;8.560;2023-07-13T12:50:29;100579.72;;;27.63;33.92
34931;BME280;21134;49.646;8.560;2023-07-13T12:52:59;100579.88;;;27.36;34.26
34931;BME280;21134;49.646;8.560;2023-07-13T12:55:28;100579.25;;;27.32;34.43
34931;BME280;21134;49.646;8.560;2023-07-13T12:57:58;100588.16;;;27.55;35.14
34931;BME280;21134;49.646;8.560;2023-07-13T13:00:30;100592.41;;;27.32;34.66